RYR1958 EGNS-EDDH
Flight info
| Callsign | RYR1958 |
|---|---|
| Flight time | 1h 28m |
| Altitude | 37000 |
| Route | WAL M16 DOLAS L603 LAMSO T606 SPY N873 ANDIK M105 RIBSO |
| Aircraft | B738/M-SDE2E3FGHIRWXY/LB1 |
Departure
| Time | 2026-04-23 13:49 |
|---|---|
| Airport | Isle of Man Airport (EGNS) |
Arrival
| Time | 2026-04-23 15:18 |
|---|---|
| Airport | Hamburg Helmut Schmidt Airport (EDDH) |
| Time | Latitude | Longitude | Altitude | Speed | Heading |
|---|---|---|---|---|---|
| 2026-04-23 13:24 | 54.08559 | -4.63282 | 30 ft | 0 kts | 45° |
| 2026-04-23 13:43 | 54.08554 | -4.63290 | 32 ft | 2 kts | 43° |
| 2026-04-23 13:43 | 54.08546 | -4.63312 | 31 ft | 2 kts | 72° |
| 2026-04-23 13:43 | 54.08543 | -4.63339 | 30 ft | 2 kts | 92° |
| 2026-04-23 13:43 | 54.08546 | -4.63366 | 32 ft | 2 kts | 118° |
| 2026-04-23 13:44 | 54.08551 | -4.63379 | 29 ft | 0 kts | 136° |
| 2026-04-23 13:46 | 54.08550 | -4.63378 | 30 ft | 2 kts | 136° |
| 2026-04-23 13:46 | 54.08520 | -4.63343 | 30 ft | 6 kts | 172° |
| 2026-04-23 13:46 | 54.08477 | -4.63346 | 33 ft | 6 kts | 186° |
| 2026-04-23 13:46 | 54.08437 | -4.63379 | 33 ft | 8 kts | 201° |
| 2026-04-23 13:47 | 54.08368 | -4.63418 | 32 ft | 12 kts | 228° |
| 2026-04-23 13:47 | 54.08335 | -4.63589 | 33 ft | 21 kts | 251° |
| 2026-04-23 13:47 | 54.08267 | -4.63816 | 31 ft | 22 kts | 239° |
| 2026-04-23 13:47 | 54.08210 | -4.63901 | 32 ft | 0 kts | 190° |
| 2026-04-23 13:48 | 54.08195 | -4.63899 | 31 ft | 8 kts | 172° |
| 2026-04-23 13:48 | 54.08151 | -4.63796 | 30 ft | 12 kts | 84° |
| 2026-04-23 13:48 | 54.08193 | -4.63438 | 29 ft | 69 kts | 78° |
| 2026-04-23 13:49 | 54.08349 | -4.62150 | 44 ft | 149 kts | 79° |
| 2026-04-23 13:49 | 54.08592 | -4.60242 | 759 ft | 171 kts | 78° |
| 2026-04-23 13:49 | 54.08487 | -4.58428 | 2190 ft | 154 kts | 124° |
| 2026-04-23 13:49 | 54.07748 | -4.57034 | 2939 ft | 170 kts | 134° |
| 2026-04-23 13:50 | 54.06855 | -4.55389 | 3207 ft | 206 kts | 133° |
| 2026-04-23 13:50 | 54.05834 | -4.53437 | 3491 ft | 233 kts | 132° |
| 2026-04-23 13:50 | 54.04745 | -4.51296 | 4142 ft | 246 kts | 132° |
| 2026-04-23 13:50 | 54.03623 | -4.49035 | 5035 ft | 252 kts | 132° |
| 2026-04-23 13:51 | 54.02498 | -4.46728 | 5991 ft | 256 kts | 131° |
| 2026-04-23 13:51 | 54.01360 | -4.44361 | 6894 ft | 260 kts | 131° |
| 2026-04-23 13:51 | 54.00219 | -4.41963 | 7811 ft | 264 kts | 131° |
| 2026-04-23 13:51 | 53.99054 | -4.39499 | 8639 ft | 269 kts | 131° |
| 2026-04-23 13:52 | 53.97874 | -4.36988 | 9519 ft | 274 kts | 131° |
| 2026-04-23 13:52 | 53.96681 | -4.34439 | 10430 ft | 277 kts | 131° |
| 2026-04-23 13:52 | 53.95442 | -4.31789 | 11023 ft | 292 kts | 131° |
| 2026-04-23 13:52 | 53.94119 | -4.28963 | 11222 ft | 319 kts | 131° |
| 2026-04-23 13:53 | 53.92685 | -4.25899 | 11416 ft | 344 kts | 131° |
| 2026-04-23 13:53 | 53.91152 | -4.22617 | 11640 ft | 365 kts | 131° |
| 2026-04-23 13:53 | 53.89555 | -4.19193 | 12125 ft | 375 kts | 131° |
| 2026-04-23 13:53 | 53.87923 | -4.15689 | 12752 ft | 382 kts | 130° |
| 2026-04-23 13:54 | 53.86263 | -4.12132 | 13411 ft | 387 kts | 130° |
| 2026-04-23 13:54 | 53.84583 | -4.08533 | 14114 ft | 391 kts | 131° |
| 2026-04-23 13:54 | 53.82882 | -4.04900 | 14752 ft | 395 kts | 131° |
| 2026-04-23 13:54 | 53.81170 | -4.01246 | 15430 ft | 398 kts | 131° |
| 2026-04-23 13:55 | 53.79447 | -3.97577 | 16160 ft | 398 kts | 130° |
| 2026-04-23 13:55 | 53.77725 | -3.93913 | 16903 ft | 398 kts | 130° |
| 2026-04-23 13:55 | 53.75992 | -3.90236 | 17510 ft | 403 kts | 129° |
| 2026-04-23 13:55 | 53.74239 | -3.86520 | 18189 ft | 404 kts | 129° |
| 2026-04-23 13:56 | 53.72485 | -3.82809 | 18794 ft | 408 kts | 129° |
| 2026-04-23 13:56 | 53.70694 | -3.79025 | 19143 ft | 416 kts | 129° |
| 2026-04-23 13:56 | 53.68900 | -3.75242 | 19878 ft | 412 kts | 129° |
| 2026-04-23 13:56 | 53.67105 | -3.71460 | 20390 ft | 415 kts | 129° |
| 2026-04-23 13:57 | 53.65287 | -3.67637 | 20860 ft | 419 kts | 129° |
| 2026-04-23 13:57 | 53.63456 | -3.63793 | 21294 ft | 424 kts | 129° |
| 2026-04-23 13:57 | 53.61597 | -3.59896 | 21717 ft | 429 kts | 128° |
| 2026-04-23 13:57 | 53.59715 | -3.55955 | 22035 ft | 435 kts | 128° |
| 2026-04-23 13:58 | 53.57809 | -3.51971 | 22509 ft | 438 kts | 128° |
| 2026-04-23 13:58 | 53.55889 | -3.47963 | 22915 ft | 442 kts | 128° |
| 2026-04-23 13:58 | 53.53947 | -3.43918 | 23294 ft | 446 kts | 128° |
| 2026-04-23 13:58 | 53.51994 | -3.39856 | 23760 ft | 448 kts | 128° |
| 2026-04-23 13:59 | 53.50026 | -3.35769 | 24113 ft | 452 kts | 128° |
| 2026-04-23 13:59 | 53.48038 | -3.31646 | 24447 ft | 455 kts | 128° |
| 2026-04-23 13:59 | 53.46038 | -3.27503 | 24792 ft | 458 kts | 128° |
| 2026-04-23 13:59 | 53.44026 | -3.23344 | 25117 ft | 461 kts | 128° |
| 2026-04-23 14:00 | 53.42656 | -3.20518 | 25340 ft | 463 kts | 128° |
| 2026-04-23 14:00 | 53.40300 | -3.14478 | 25743 ft | 465 kts | 114° |
| 2026-04-23 14:00 | 53.39208 | -3.09387 | 26069 ft | 465 kts | 103° |
| 2026-04-23 14:00 | 53.38692 | -3.04050 | 26385 ft | 465 kts | 92° |
| 2026-04-23 14:01 | 53.38513 | -2.98626 | 26673 ft | 468 kts | 91° |
| 2026-04-23 14:01 | 53.38356 | -2.93177 | 26950 ft | 470 kts | 91° |
| 2026-04-23 14:01 | 53.38189 | -2.87691 | 27272 ft | 472 kts | 91° |
| 2026-04-23 14:01 | 53.38003 | -2.82212 | 27697 ft | 471 kts | 92° |
| 2026-04-23 14:02 | 53.37801 | -2.76748 | 28194 ft | 469 kts | 92° |
| 2026-04-23 14:02 | 53.37588 | -2.71302 | 28653 ft | 468 kts | 92° |
| 2026-04-23 14:02 | 53.37370 | -2.65875 | 29058 ft | 468 kts | 92° |
| 2026-04-23 14:02 | 53.37147 | -2.60440 | 29467 ft | 468 kts | 92° |
| 2026-04-23 14:03 | 53.36923 | -2.55006 | 29928 ft | 467 kts | 91° |
| 2026-04-23 14:03 | 53.36697 | -2.49583 | 30390 ft | 466 kts | 91° |
| 2026-04-23 14:03 | 53.36470 | -2.44177 | 30777 ft | 466 kts | 91° |
| 2026-04-23 14:03 | 53.36241 | -2.38768 | 31124 ft | 465 kts | 91° |
| 2026-04-23 14:04 | 53.36012 | -2.33379 | 31492 ft | 464 kts | 91° |
| 2026-04-23 14:04 | 53.35779 | -2.27992 | 31862 ft | 463 kts | 92° |
| 2026-04-23 14:04 | 53.35424 | -2.22629 | 32206 ft | 464 kts | 96° |
| 2026-04-23 14:04 | 53.34900 | -2.17290 | 32551 ft | 464 kts | 98° |
| 2026-04-23 14:05 | 53.34323 | -2.11981 | 32909 ft | 464 kts | 98° |
| 2026-04-23 14:05 | 53.33737 | -2.06681 | 33253 ft | 463 kts | 98° |
| 2026-04-23 14:05 | 53.33161 | -2.01404 | 33839 ft | 456 kts | 99° |
| 2026-04-23 14:05 | 53.32607 | -1.96239 | 34513 ft | 449 kts | 99° |
| 2026-04-23 14:06 | 53.32065 | -1.91105 | 34757 ft | 449 kts | 99° |
| 2026-04-23 14:06 | 53.31522 | -1.85937 | 34871 ft | 453 kts | 99° |
| 2026-04-23 14:06 | 53.30974 | -1.80720 | 35029 ft | 456 kts | 99° |
| 2026-04-23 14:06 | 53.30424 | -1.75514 | 35332 ft | 454 kts | 99° |
| 2026-04-23 14:07 | 53.29875 | -1.70337 | 35674 ft | 452 kts | 99° |
| 2026-04-23 14:07 | 53.28759 | -1.59922 | 36133 ft | 453 kts | 99° |
| 2026-04-23 14:07 | 53.28208 | -1.54813 | 36377 ft | 452 kts | 100° |
| 2026-04-23 14:08 | 53.27645 | -1.49596 | 36802 ft | 447 kts | 101° |
| 2026-04-23 14:08 | 53.27096 | -1.44527 | 37316 ft | 441 kts | 101° |
| 2026-04-23 14:08 | 53.26546 | -1.39482 | 37469 ft | 443 kts | 101° |
| 2026-04-23 14:08 | 53.25989 | -1.34389 | 37487 ft | 448 kts | 101° |
| 2026-04-23 14:09 | 53.25049 | -1.25837 | 37495 ft | 451 kts | 101° |
| 2026-04-23 14:09 | 53.23910 | -1.15542 | 37492 ft | 451 kts | 101° |
| 2026-04-23 14:10 | 53.22763 | -1.05269 | 37474 ft | 450 kts | 101° |
| 2026-04-23 14:10 | 53.21613 | -0.95034 | 37491 ft | 447 kts | 102° |
| 2026-04-23 14:11 | 53.20460 | -0.84864 | 37483 ft | 445 kts | 102° |
| 2026-04-23 14:11 | 53.19303 | -0.74747 | 37478 ft | 443 kts | 102° |
| 2026-04-23 14:12 | 53.18145 | -0.64684 | 37483 ft | 441 kts | 102° |
| 2026-04-23 14:12 | 53.16977 | -0.54600 | 37482 ft | 440 kts | 103° |
| 2026-04-23 14:13 | 53.15810 | -0.44614 | 37483 ft | 439 kts | 103° |
| 2026-04-23 14:13 | 53.14636 | -0.34641 | 37485 ft | 439 kts | 103° |
| 2026-04-23 14:14 | 53.13455 | -0.24674 | 37515 ft | 439 kts | 103° |
| 2026-04-23 14:14 | 53.12262 | -0.14695 | 37512 ft | 440 kts | 103° |
| 2026-04-23 14:15 | 53.11060 | -0.04708 | 37510 ft | 441 kts | 103° |
| 2026-04-23 14:15 | 53.09847 | 0.05296 | 37508 ft | 441 kts | 104° |
| 2026-04-23 14:16 | 53.08624 | 0.15304 | 37496 ft | 441 kts | 104° |
| 2026-04-23 14:16 | 53.07395 | 0.25295 | 37505 ft | 440 kts | 104° |
| 2026-04-23 14:17 | 53.06160 | 0.35250 | 37504 ft | 439 kts | 104° |
| 2026-04-23 14:17 | 53.04920 | 0.45180 | 37507 ft | 438 kts | 104° |
| 2026-04-23 14:18 | 53.03675 | 0.55078 | 37507 ft | 437 kts | 104° |
| 2026-04-23 14:18 | 53.02426 | 0.64938 | 37503 ft | 436 kts | 104° |
| 2026-04-23 14:19 | 53.01172 | 0.74759 | 37506 ft | 434 kts | 105° |
| 2026-04-23 14:19 | 52.99914 | 0.84552 | 37518 ft | 433 kts | 104° |
| 2026-04-23 14:20 | 52.98653 | 0.94315 | 37511 ft | 432 kts | 105° |
| 2026-04-23 14:20 | 52.97399 | 1.04128 | 37497 ft | 432 kts | 104° |
| 2026-04-23 14:21 | 52.96272 | 1.13891 | 37503 ft | 431 kts | 104° |
| 2026-04-23 14:21 | 52.95159 | 1.23653 | 37505 ft | 431 kts | 104° |
| 2026-04-23 14:22 | 52.94028 | 1.33400 | 37505 ft | 431 kts | 104° |
| 2026-04-23 14:22 | 52.92877 | 1.43159 | 37505 ft | 432 kts | 104° |
| 2026-04-23 14:23 | 52.91715 | 1.52924 | 37491 ft | 433 kts | 104° |
| 2026-04-23 14:23 | 52.90540 | 1.62723 | 37506 ft | 434 kts | 104° |
| 2026-04-23 14:24 | 52.89355 | 1.72542 | 37504 ft | 436 kts | 104° |
| 2026-04-23 14:24 | 52.88156 | 1.82398 | 37497 ft | 437 kts | 105° |
| 2026-04-23 14:25 | 52.86946 | 1.92272 | 37502 ft | 438 kts | 105° |
| 2026-04-23 14:25 | 52.85727 | 2.02160 | 37480 ft | 438 kts | 105° |
| 2026-04-23 14:26 | 52.84500 | 2.12026 | 37490 ft | 438 kts | 105° |
| 2026-04-23 14:26 | 52.83266 | 2.21891 | 37494 ft | 438 kts | 105° |
| 2026-04-23 14:27 | 52.82642 | 2.26844 | 37489 ft | 437 kts | 105° |
| 2026-04-23 14:27 | 52.81398 | 2.36680 | 37491 ft | 437 kts | 105° |
| 2026-04-23 14:28 | 52.80147 | 2.46510 | 37489 ft | 437 kts | 105° |
| 2026-04-23 14:28 | 52.78877 | 2.56387 | 37490 ft | 436 kts | 105° |
| 2026-04-23 14:29 | 52.77617 | 2.66093 | 37485 ft | 434 kts | 105° |
| 2026-04-23 14:29 | 52.76340 | 2.75886 | 37491 ft | 433 kts | 105° |
| 2026-04-23 14:30 | 52.75077 | 2.85597 | 37488 ft | 432 kts | 105° |
| 2026-04-23 14:30 | 52.73832 | 2.95294 | 37478 ft | 432 kts | 105° |
| 2026-04-23 14:31 | 52.73431 | 3.05224 | 37475 ft | 438 kts | 90° |
| 2026-04-23 14:31 | 52.73880 | 3.15255 | 37478 ft | 438 kts | 90° |
| 2026-04-23 14:32 | 52.74307 | 3.25276 | 37478 ft | 437 kts | 90° |
| 2026-04-23 14:32 | 52.74694 | 3.35277 | 37480 ft | 437 kts | 90° |
| 2026-04-23 14:33 | 52.75062 | 3.45276 | 37480 ft | 436 kts | 90° |
| 2026-04-23 14:33 | 52.75422 | 3.55269 | 37466 ft | 436 kts | 90° |
| 2026-04-23 14:34 | 52.75776 | 3.65267 | 37475 ft | 436 kts | 90° |
| 2026-04-23 14:34 | 52.75770 | 3.75215 | 37474 ft | 431 kts | 101° |
| 2026-04-23 14:35 | 52.74248 | 3.84682 | 37483 ft | 426 kts | 111° |
| 2026-04-23 14:35 | 52.72373 | 3.93969 | 37470 ft | 427 kts | 111° |
| 2026-04-23 14:36 | 52.70511 | 4.03276 | 37454 ft | 428 kts | 111° |
| 2026-04-23 14:36 | 52.68661 | 4.12613 | 37473 ft | 429 kts | 110° |
| 2026-04-23 14:37 | 52.66797 | 4.22019 | 37449 ft | 429 kts | 110° |
| 2026-04-23 14:37 | 52.64939 | 4.31354 | 37454 ft | 429 kts | 111° |
| 2026-04-23 14:38 | 52.63072 | 4.40685 | 37453 ft | 429 kts | 111° |
| 2026-04-23 14:38 | 52.61198 | 4.50002 | 37455 ft | 429 kts | 111° |
| 2026-04-23 14:39 | 52.59317 | 4.59312 | 37450 ft | 429 kts | 111° |
| 2026-04-23 14:39 | 52.57432 | 4.68608 | 37436 ft | 429 kts | 111° |
| 2026-04-23 14:40 | 52.55569 | 4.77915 | 37431 ft | 430 kts | 106° |
| 2026-04-23 14:40 | 52.55310 | 4.82821 | 37454 ft | 436 kts | 88° |
| 2026-04-23 14:40 | 52.55897 | 4.87748 | 37422 ft | 443 kts | 75° |
| 2026-04-23 14:41 | 52.57214 | 4.92350 | 37443 ft | 451 kts | 59° |
| 2026-04-23 14:41 | 52.59113 | 4.96484 | 37452 ft | 454 kts | 55° |
| 2026-04-23 14:41 | 52.63131 | 5.04533 | 37442 ft | 455 kts | 54° |
| 2026-04-23 14:42 | 52.67082 | 5.12667 | 37429 ft | 455 kts | 55° |
| 2026-04-23 14:42 | 52.70346 | 5.19546 | 37440 ft | 455 kts | 56° |
| 2026-04-23 14:43 | 52.74002 | 5.28028 | 37424 ft | 451 kts | 65° |
| 2026-04-23 14:43 | 52.76291 | 5.37561 | 37438 ft | 446 kts | 74° |
| 2026-04-23 14:44 | 52.78313 | 5.47262 | 37435 ft | 447 kts | 75° |
| 2026-04-23 14:44 | 52.80357 | 5.56976 | 37428 ft | 448 kts | 74° |
| 2026-04-23 14:45 | 52.82421 | 5.66680 | 37422 ft | 448 kts | 74° |
| 2026-04-23 14:45 | 52.84491 | 5.76399 | 37428 ft | 448 kts | 74° |
| 2026-04-23 14:46 | 52.86554 | 5.86128 | 37423 ft | 448 kts | 74° |
| 2026-04-23 14:46 | 52.88608 | 5.95869 | 37415 ft | 448 kts | 74° |
| 2026-04-23 14:47 | 52.90652 | 6.05612 | 37425 ft | 448 kts | 74° |
| 2026-04-23 14:47 | 52.92690 | 6.15372 | 37423 ft | 448 kts | 73° |
| 2026-04-23 14:48 | 52.94719 | 6.25141 | 37416 ft | 448 kts | 73° |
| 2026-04-23 14:48 | 52.96739 | 6.34907 | 37413 ft | 448 kts | 74° |
| 2026-04-23 14:49 | 52.98750 | 6.44683 | 37420 ft | 447 kts | 74° |
| 2026-04-23 14:49 | 53.00765 | 6.54527 | 37411 ft | 447 kts | 74° |
| 2026-04-23 14:50 | 53.02758 | 6.64311 | 37407 ft | 447 kts | 74° |
| 2026-04-23 14:50 | 53.04740 | 6.74087 | 37400 ft | 446 kts | 74° |
| 2026-04-23 14:51 | 53.06711 | 6.83859 | 37395 ft | 446 kts | 74° |
| 2026-04-23 14:51 | 53.08671 | 6.93623 | 37395 ft | 445 kts | 74° |
| 2026-04-23 14:52 | 53.10621 | 7.03393 | 37394 ft | 445 kts | 74° |
| 2026-04-23 14:52 | 53.12563 | 7.13157 | 37394 ft | 444 kts | 74° |
| 2026-04-23 14:53 | 53.14488 | 7.22935 | 37391 ft | 444 kts | 74° |
| 2026-04-23 14:53 | 53.16386 | 7.32718 | 37394 ft | 443 kts | 74° |
| 2026-04-23 14:54 | 53.18283 | 7.42493 | 37387 ft | 443 kts | 74° |
| 2026-04-23 14:54 | 53.20184 | 7.52258 | 37376 ft | 443 kts | 74° |
| 2026-04-23 14:55 | 53.21135 | 7.57163 | 37240 ft | 446 kts | 74° |
| 2026-04-23 14:55 | 53.22088 | 7.62096 | 36784 ft | 450 kts | 74° |
| 2026-04-23 14:55 | 53.23051 | 7.67069 | 36267 ft | 449 kts | 73° |
| 2026-04-23 14:55 | 53.24240 | 7.71882 | 35758 ft | 447 kts | 65° |
| 2026-04-23 14:56 | 53.25654 | 7.76455 | 35275 ft | 442 kts | 64° |
| 2026-04-23 14:56 | 53.27106 | 7.80959 | 34788 ft | 438 kts | 63° |
| 2026-04-23 14:56 | 53.28549 | 7.85408 | 34302 ft | 435 kts | 64° |
| 2026-04-23 14:56 | 53.29976 | 7.89849 | 33763 ft | 431 kts | 64° |
| 2026-04-23 14:57 | 53.31375 | 7.94258 | 33228 ft | 428 kts | 64° |
| 2026-04-23 14:57 | 53.32769 | 7.98702 | 32701 ft | 424 kts | 64° |
| 2026-04-23 14:57 | 53.34108 | 8.03005 | 32189 ft | 421 kts | 64° |
| 2026-04-23 14:57 | 53.35468 | 8.07399 | 31690 ft | 418 kts | 64° |
| 2026-04-23 14:58 | 53.36795 | 8.11702 | 31178 ft | 415 kts | 64° |
| 2026-04-23 14:58 | 53.38115 | 8.15991 | 30700 ft | 412 kts | 64° |
| 2026-04-23 14:58 | 53.39420 | 8.20241 | 30187 ft | 409 kts | 64° |
| 2026-04-23 14:58 | 53.40715 | 8.24464 | 29623 ft | 406 kts | 64° |
| 2026-04-23 14:59 | 53.41998 | 8.28656 | 29085 ft | 402 kts | 63° |
| 2026-04-23 14:59 | 53.43270 | 8.32818 | 28543 ft | 399 kts | 63° |
| 2026-04-23 14:59 | 53.44530 | 8.36947 | 28024 ft | 396 kts | 63° |
| 2026-04-23 14:59 | 53.45778 | 8.41047 | 27487 ft | 393 kts | 63° |
| 2026-04-23 15:00 | 53.47016 | 8.45117 | 26973 ft | 391 kts | 63° |
| 2026-04-23 15:00 | 53.48246 | 8.49170 | 26464 ft | 388 kts | 63° |
| 2026-04-23 15:00 | 53.49468 | 8.53200 | 25972 ft | 386 kts | 63° |
| 2026-04-23 15:00 | 53.50680 | 8.57208 | 25490 ft | 384 kts | 63° |
| 2026-04-23 15:01 | 53.51888 | 8.61206 | 25013 ft | 382 kts | 63° |
| 2026-04-23 15:01 | 53.53086 | 8.65180 | 24547 ft | 380 kts | 62° |
| 2026-04-23 15:01 | 53.54279 | 8.69141 | 24075 ft | 379 kts | 62° |
| 2026-04-23 15:01 | 53.55464 | 8.73084 | 23576 ft | 377 kts | 62° |
| 2026-04-23 15:02 | 53.56262 | 8.75742 | 23212 ft | 376 kts | 62° |
| 2026-04-23 15:02 | 53.57819 | 8.80939 | 22510 ft | 374 kts | 62° |
| 2026-04-23 15:02 | 53.58984 | 8.84833 | 22004 ft | 372 kts | 62° |
| 2026-04-23 15:02 | 53.60144 | 8.88718 | 21501 ft | 370 kts | 62° |
| 2026-04-23 15:03 | 53.61297 | 8.92587 | 21001 ft | 368 kts | 62° |
| 2026-04-23 15:03 | 53.62444 | 8.96440 | 20504 ft | 367 kts | 62° |
| 2026-04-23 15:03 | 53.63583 | 9.00272 | 20024 ft | 365 kts | 61° |
| 2026-04-23 15:03 | 53.64714 | 9.04087 | 19545 ft | 363 kts | 63° |
| 2026-04-23 15:04 | 53.65640 | 9.08044 | 19069 ft | 363 kts | 71° |
| 2026-04-23 15:04 | 53.66342 | 9.12124 | 18621 ft | 362 kts | 72° |
| 2026-04-23 15:04 | 53.67013 | 9.16265 | 18079 ft | 361 kts | 72° |
| 2026-04-23 15:04 | 53.67661 | 9.20293 | 17562 ft | 359 kts | 71° |
| 2026-04-23 15:05 | 53.68330 | 9.24403 | 17041 ft | 359 kts | 72° |
| 2026-04-23 15:05 | 53.68999 | 9.28456 | 16542 ft | 358 kts | 71° |
| 2026-04-23 15:05 | 53.69670 | 9.32493 | 16035 ft | 357 kts | 71° |
| 2026-04-23 15:05 | 53.70339 | 9.36496 | 15534 ft | 350 kts | 71° |
| 2026-04-23 15:06 | 53.70989 | 9.40394 | 15042 ft | 340 kts | 71° |
| 2026-04-23 15:06 | 53.71623 | 9.44190 | 14563 ft | 332 kts | 70° |
| 2026-04-23 15:06 | 53.72243 | 9.47897 | 14090 ft | 324 kts | 70° |
| 2026-04-23 15:06 | 53.72849 | 9.51530 | 13558 ft | 318 kts | 70° |
| 2026-04-23 15:07 | 53.73442 | 9.55086 | 13041 ft | 312 kts | 70° |
| 2026-04-23 15:07 | 53.74025 | 9.58586 | 12530 ft | 307 kts | 70° |
| 2026-04-23 15:07 | 53.74597 | 9.62032 | 12029 ft | 302 kts | 70° |
| 2026-04-23 15:07 | 53.75161 | 9.65431 | 11534 ft | 298 kts | 70° |
| 2026-04-23 15:08 | 53.75715 | 9.68778 | 11039 ft | 294 kts | 70° |
| 2026-04-23 15:08 | 53.76263 | 9.72093 | 10574 ft | 291 kts | 70° |
| 2026-04-23 15:08 | 53.76805 | 9.75379 | 10082 ft | 288 kts | 70° |
| 2026-04-23 15:09 | 53.77854 | 9.81773 | 9090 ft | 273 kts | 69° |
| 2026-04-23 15:09 | 53.78352 | 9.84820 | 8561 ft | 265 kts | 69° |
| 2026-04-23 15:09 | 53.78837 | 9.87791 | 8056 ft | 260 kts | 69° |
| 2026-04-23 15:09 | 53.79321 | 9.90741 | 7583 ft | 260 kts | 69° |
| 2026-04-23 15:10 | 53.79641 | 9.92710 | 7410 ft | 253 kts | 69° |
| 2026-04-23 15:10 | 53.80231 | 9.96348 | 7142 ft | 235 kts | 69° |
| 2026-04-23 15:10 | 53.80660 | 9.98987 | 6791 ft | 231 kts | 69° |
| 2026-04-23 15:10 | 53.81085 | 10.01594 | 6433 ft | 228 kts | 69° |
| 2026-04-23 15:11 | 53.81504 | 10.04168 | 6071 ft | 226 kts | 69° |
| 2026-04-23 15:11 | 53.81917 | 10.06710 | 5720 ft | 223 kts | 69° |
| 2026-04-23 15:11 | 53.82321 | 10.09224 | 5366 ft | 220 kts | 69° |
| 2026-04-23 15:11 | 53.82719 | 10.11751 | 5019 ft | 219 kts | 73° |
| 2026-04-23 15:12 | 53.82634 | 10.14314 | 4627 ft | 228 kts | 107° |
| 2026-04-23 15:12 | 53.81704 | 10.16522 | 4277 ft | 229 kts | 136° |
| 2026-04-23 15:12 | 53.80517 | 10.18264 | 3933 ft | 225 kts | 139° |
| 2026-04-23 15:12 | 53.79314 | 10.19964 | 3604 ft | 226 kts | 139° |
| 2026-04-23 15:13 | 53.78035 | 10.21507 | 3235 ft | 227 kts | 154° |
| 2026-04-23 15:13 | 53.76511 | 10.22012 | 2858 ft | 223 kts | 190° |
| 2026-04-23 15:13 | 53.75039 | 10.21330 | 2548 ft | 219 kts | 203° |
| 2026-04-23 15:13 | 53.73644 | 10.20340 | 2145 ft | 214 kts | 221° |
| 2026-04-23 15:14 | 53.72768 | 10.18502 | 2046 ft | 192 kts | 244° |
| 2026-04-23 15:14 | 53.71969 | 10.16787 | 1996 ft | 178 kts | 235° |
| 2026-04-23 15:14 | 53.71182 | 10.15286 | 1974 ft | 166 kts | 235° |
| 2026-04-23 15:14 | 53.70440 | 10.13810 | 1986 ft | 163 kts | 237° |
| 2026-04-23 15:15 | 53.69706 | 10.12327 | 1960 ft | 167 kts | 237° |
| 2026-04-23 15:15 | 53.69211 | 10.11322 | 1809 ft | 168 kts | 237° |
| 2026-04-23 15:15 | 53.68465 | 10.09819 | 1603 ft | 165 kts | 237° |
| 2026-04-23 15:15 | 53.67767 | 10.08410 | 1390 ft | 149 kts | 237° |
| 2026-04-23 15:16 | 53.67147 | 10.07157 | 1182 ft | 133 kts | 238° |
| 2026-04-23 15:16 | 53.66552 | 10.05946 | 1015 ft | 133 kts | 238° |
| 2026-04-23 15:16 | 53.65973 | 10.04774 | 830 ft | 131 kts | 238° |
| 2026-04-23 15:16 | 53.65385 | 10.03583 | 649 ft | 129 kts | 239° |
| 2026-04-23 15:17 | 53.64817 | 10.02431 | 458 ft | 127 kts | 237° |
| 2026-04-23 15:17 | 53.64267 | 10.01316 | 297 ft | 121 kts | 236° |
| 2026-04-23 15:17 | 53.63729 | 10.00238 | 126 ft | 120 kts | 237° |
| 2026-04-23 15:17 | 53.63212 | 9.99171 | 51 ft | 107 kts | 231° |
| 2026-04-23 15:18 | 53.62874 | 9.98490 | 49 ft | 45 kts | 230° |
| 2026-04-23 15:18 | 53.62682 | 9.98103 | 49 ft | 38 kts | 229° |
| 2026-04-23 15:18 | 53.62546 | 9.97834 | 46 ft | 18 kts | 224° |
| 2026-04-23 15:18 | 53.62438 | 9.97856 | 48 ft | 18 kts | 118° |
| 2026-04-23 15:19 | 53.62444 | 9.98058 | 49 ft | 17 kts | 79° |
| 2026-04-23 15:19 | 53.62468 | 9.98252 | 47 ft | 17 kts | 76° |
| 2026-04-23 15:19 | 53.62493 | 9.98459 | 47 ft | 21 kts | 79° |
| 2026-04-23 15:19 | 53.62522 | 9.98729 | 47 ft | 26 kts | 79° |
| 2026-04-23 15:20 | 53.62558 | 9.99030 | 50 ft | 26 kts | 77° |
| 2026-04-23 15:20 | 53.62587 | 9.99297 | 50 ft | 21 kts | 81° |
| 2026-04-23 15:20 | 53.62610 | 9.99521 | 49 ft | 19 kts | 78° |
| 2026-04-23 15:20 | 53.62636 | 9.99731 | 49 ft | 18 kts | 77° |
| 2026-04-23 15:21 | 53.62713 | 9.99879 | 48 ft | 17 kts | 29° |
| 2026-04-23 15:21 | 53.62813 | 9.99972 | 49 ft | 15 kts | 31° |
| 2026-04-23 15:21 | 53.62896 | 10.00076 | 49 ft | 15 kts | 34° |
| 2026-04-23 15:21 | 53.62950 | 10.00165 | 50 ft | 11 kts | 91° |
| 2026-04-23 15:22 | 53.62935 | 10.00249 | 48 ft | 0 kts | 110° |
| 2026-04-23 15:22 | 53.62934 | 10.00251 | 47 ft | 1 kts | 110° |